createdAt,value
2019-01-24T00:02:21.523Z,82.17
2019-01-24T00:04:52.342Z,82.20
2019-01-24T00:07:22.969Z,82.20
2019-01-24T00:09:53.410Z,81.69
2019-01-24T00:12:23.893Z,81.58
2019-01-24T00:14:54.291Z,81.23
2019-01-24T00:17:24.732Z,81.14
2019-01-24T00:19:55.658Z,81.23
2019-01-24T00:22:26.073Z,81.23
2019-01-24T00:24:56.471Z,82.13
2019-01-24T00:27:26.984Z,82.51
2019-01-24T00:29:57.427Z,82.38
2019-01-24T00:32:27.990Z,82.52
2019-01-24T00:34:58.394Z,82.61
2019-01-24T00:37:28.769Z,82.28
2019-01-24T00:39:59.114Z,81.99
2019-01-24T00:42:29.568Z,81.97
2019-01-24T00:44:59.910Z,81.95
2019-01-24T00:47:30.268Z,81.11
2019-01-24T00:50:00.642Z,81.11
2019-01-24T00:52:31.007Z,81.60
2019-01-24T00:55:01.389Z,81.81
2019-01-24T00:57:31.789Z,82.42
2019-01-24T01:00:02.105Z,82.42
2019-01-24T01:02:32.549Z,82.07
2019-01-24T01:05:03.026Z,81.99
2019-01-24T01:07:33.436Z,81.85
2019-01-24T01:10:03.780Z,81.72
2019-01-24T01:12:34.298Z,81.81
2019-01-24T01:15:07.003Z,81.81
2019-01-24T01:17:37.463Z,81.94
2019-01-24T01:20:09.687Z,82.17
2019-01-24T01:22:40.031Z,81.98
2019-01-24T01:25:12.074Z,82.00
2019-01-24T01:27:42.493Z,82.15
2019-01-24T01:30:15.890Z,82.37
2019-01-24T01:32:46.510Z,82.26
2019-01-24T01:35:16.872Z,82.24
2019-01-24T01:37:47.465Z,82.55
2019-01-24T01:40:18.735Z,82.97
2019-01-24T01:42:49.068Z,83.13
2019-01-24T01:45:24.186Z,82.89
2019-01-24T01:47:56.127Z,82.92
2019-01-24T01:50:27.167Z,82.55
2019-01-24T01:52:59.023Z,82.55
2019-01-24T01:55:29.888Z,81.98
2019-01-24T01:58:00.206Z,81.66
2019-01-24T02:00:31.348Z,81.58
2019-01-24T02:03:02.018Z,82.21
2019-01-24T02:05:33.462Z,83.03
2019-01-24T02:08:04.604Z,83.21
2019-01-24T02:10:35.507Z,82.98
2019-01-24T02:13:06.127Z,82.88
2019-01-24T02:15:36.480Z,82.98
2019-01-24T02:18:06.946Z,83.27
2019-01-24T02:20:37.249Z,83.78
2019-01-24T02:23:08.004Z,84.13
2019-01-24T02:25:38.518Z,84.30
2019-01-24T02:28:08.843Z,84.55
2019-01-24T02:30:39.266Z,84.96
2019-01-24T02:33:09.565Z,85.27
2019-01-24T02:35:39.965Z,85.30
2019-01-24T02:38:10.331Z,85.31
2019-01-24T02:40:40.743Z,85.51
2019-01-24T02:43:11.145Z,85.54
2019-01-24T02:45:41.502Z,85.78
2019-01-24T02:48:11.801Z,86.17
2019-01-24T02:50:42.077Z,86.23
2019-01-24T02:53:12.560Z,86.32
2019-01-24T02:55:42.904Z,86.18
2019-01-24T02:58:13.626Z,86.26
2019-01-24T03:00:43.993Z,86.35
2019-01-24T03:03:14.330Z,86.59
2019-01-24T03:05:44.623Z,86.57
2019-01-24T03:08:16.287Z,86.52
2019-01-24T03:10:46.652Z,86.48
2019-01-24T03:13:16.953Z,86.41
2019-01-24T03:15:47.344Z,86.44
2019-01-24T03:18:17.697Z,86.21
2019-01-24T03:20:48.030Z,86.26
2019-01-24T03:23:18.828Z,86.36
2019-01-24T03:25:49.112Z,86.47
2019-01-24T03:28:19.726Z,86.33
2019-01-24T03:30:50.726Z,86.27
2019-01-24T03:33:21.027Z,86.12
2019-01-24T03:35:51.344Z,85.91
2019-01-24T03:38:21.807Z,85.84
2019-01-24T03:40:52.138Z,85.73
2019-01-24T03:43:22.430Z,85.80
2019-01-24T03:45:52.787Z,85.72
2019-01-24T03:48:23.165Z,85.64
2019-01-24T03:50:53.585Z,85.65
2019-01-24T03:53:23.983Z,85.81
2019-01-24T03:55:54.355Z,85.91
2019-01-24T03:58:25.717Z,85.81
2019-01-24T04:00:56.114Z,85.67
2019-01-24T04:03:26.478Z,85.59
2019-01-24T04:05:56.832Z,85.76
2019-01-24T04:08:27.306Z,85.73
2019-01-24T04:10:57.669Z,85.65
2019-01-24T04:13:27.962Z,85.29
2019-01-24T04:15:58.364Z,85.00
2019-01-24T04:18:28.776Z,84.82
2019-01-24T04:20:59.115Z,84.60
2019-01-24T04:23:29.451Z,84.36
2019-01-24T04:25:59.744Z,84.03
2019-01-24T04:28:34.236Z,83.92
2019-01-24T04:31:04.572Z,83.63
2019-01-24T04:33:34.949Z,83.41
2019-01-24T04:36:05.349Z,83.08
2019-01-24T04:38:35.721Z,83.34
2019-01-24T04:41:05.990Z,83.20
2019-01-24T04:43:36.355Z,83.20
2019-01-24T04:46:06.887Z,82.87
2019-01-24T04:48:37.271Z,82.38
2019-01-24T04:51:07.660Z,82.21
2019-01-24T04:53:37.994Z,82.21
2019-01-24T04:56:08.394Z,82.29
2019-01-24T04:58:38.784Z,82.04
2019-01-24T05:01:09.142Z,81.41
2019-01-24T05:03:40.001Z,81.41
2019-01-24T05:06:10.366Z,81.31
2019-01-24T05:08:41.149Z,81.25
2019-01-24T05:11:11.468Z,81.37
2019-01-24T05:13:41.914Z,80.60
2019-01-24T05:16:12.206Z,80.31
2019-01-24T05:18:42.540Z,80.31
2019-01-24T05:21:12.903Z,80.73
2019-01-24T05:23:43.279Z,80.11
2019-01-24T05:26:13.626Z,80.50
2019-01-24T05:28:44.037Z,80.50
2019-01-24T05:31:14.344Z,80.44
2019-01-24T05:33:44.650Z,80.45
2019-01-24T05:36:14.975Z,80.51
2019-01-24T05:38:45.625Z,80.53
2019-01-24T05:41:15.935Z,80.53
2019-01-24T05:43:46.263Z,80.40
2019-01-24T05:46:16.644Z,80.62
2019-01-24T05:48:46.986Z,80.62
2019-01-24T05:51:17.428Z,80.01
2019-01-24T05:53:47.865Z,80.00
2019-01-24T05:56:18.285Z,79.79
2019-01-24T05:58:48.827Z,79.79
2019-01-24T06:01:19.774Z,79.56
2019-01-24T06:03:51.386Z,79.56
2019-01-24T06:06:23.478Z,79.39
2019-01-24T06:08:54.116Z,79.39
2019-01-24T06:11:25.052Z,79.30
2019-01-24T06:13:57.211Z,79.16
2019-01-24T06:16:29.488Z,79.21
2019-01-24T06:19:00.246Z,79.21
2019-01-24T06:21:31.367Z,79.50
2019-01-24T06:24:03.479Z,79.85
2019-01-24T06:26:34.302Z,79.85
2019-01-24T06:29:05.149Z,79.84
2019-01-24T06:31:37.702Z,79.92
2019-01-24T06:34:08.613Z,79.92
2019-01-24T06:36:44.896Z,79.70
2019-01-24T06:39:15.661Z,79.40
2019-01-24T06:41:46.667Z,79.40
2019-01-24T06:44:17.224Z,79.10
2019-01-24T06:46:47.801Z,79.10
2019-01-24T06:49:18.537Z,79.63
2019-01-24T06:51:49.312Z,80.20
2019-01-24T06:54:20.003Z,80.20
2019-01-24T06:56:50.755Z,80.89
2019-01-24T06:59:23.362Z,80.89
2019-01-24T07:01:54.799Z,80.97
2019-01-24T07:04:25.879Z,81.37
2019-01-24T07:06:57.422Z,81.35
2019-01-24T07:09:29.309Z,82.50
2019-01-24T07:12:00.371Z,82.50
2019-01-24T07:14:31.315Z,82.53
2019-01-24T07:17:02.240Z,82.93
2019-01-24T07:19:34.447Z,83.05
2019-01-24T07:22:05.299Z,83.25
2019-01-24T07:24:37.220Z,83.16
2019-01-24T07:27:07.890Z,83.16
2019-01-24T07:29:38.930Z,83.08
2019-01-24T07:32:20.561Z,83.33
2019-01-24T07:34:51.430Z,83.33
2019-01-24T07:37:22.251Z,83.40
2019-01-24T07:39:53.286Z,83.46
2019-01-24T07:42:25.511Z,83.51
2019-01-24T07:44:57.802Z,83.65
2019-01-24T07:47:28.605Z,83.65
2019-01-24T07:49:59.626Z,83.76
2019-01-24T07:52:37.789Z,84.01
2019-01-24T07:58:00.763Z,84.10
2019-01-24T08:00:31.416Z,84.04
2019-01-24T08:03:02.162Z,83.90
2019-01-24T08:05:32.865Z,83.99
2019-01-24T08:08:03.566Z,84.37
2019-01-24T08:10:34.284Z,84.62
2019-01-24T08:13:06.662Z,84.87
2019-01-24T08:15:42.603Z,84.98
2019-01-24T08:18:13.331Z,84.98
2019-01-24T08:20:44.074Z,85.03
2019-01-24T08:23:15.002Z,85.18
2019-01-24T08:25:45.696Z,85.51
2019-01-24T08:28:17.479Z,85.51
2019-01-24T08:30:48.167Z,85.51
2019-01-24T08:33:18.862Z,85.44
2019-01-24T08:35:50.342Z,84.67
2019-01-24T08:38:21.401Z,84.21
2019-01-24T08:40:52.351Z,84.21
2019-01-24T08:43:23.311Z,83.96
2019-01-24T08:45:54.066Z,83.64
2019-01-24T08:48:24.615Z,83.64
2019-01-24T08:50:55.065Z,83.05
2019-01-24T08:53:27.398Z,83.52
2019-01-24T08:55:58.075Z,83.52
2019-01-24T08:58:28.771Z,82.77
2019-01-24T09:00:59.520Z,82.77
2019-01-24T09:03:30.194Z,82.52
2019-01-24T09:06:01.075Z,81.96
2019-01-24T09:08:31.976Z,81.96
2019-01-24T09:11:02.763Z,81.45
2019-01-24T09:13:33.349Z,81.74
2019-01-24T09:16:04.061Z,81.74
2019-01-24T09:18:34.553Z,81.02
2019-01-24T09:21:05.273Z,81.64
2019-01-24T09:23:35.959Z,81.64
2019-01-24T09:26:06.916Z,81.86
2019-01-24T09:28:41.306Z,82.23
2019-01-24T09:31:11.876Z,82.23
2019-01-24T09:33:42.701Z,82.62
2019-01-24T09:36:14.842Z,82.12
2019-01-24T09:38:45.648Z,82.12
2019-01-24T09:41:16.418Z,81.64
2019-01-24T09:43:47.996Z,81.52
2019-01-24T09:46:18.768Z,81.27
2019-01-24T09:48:49.368Z,80.96
2019-01-24T09:51:40.060Z,80.40
2019-01-24T09:54:10.667Z,80.40
2019-01-24T09:56:41.255Z,79.11
2019-01-24T09:59:12.392Z,79.73
2019-01-24T10:01:44.256Z,79.73
2019-01-24T10:04:15.071Z,79.45
2019-01-24T10:06:46.008Z,79.53
2019-01-24T10:09:16.688Z,78.66
2019-01-24T10:11:47.430Z,78.66
2019-01-24T10:14:18.972Z,78.76
2019-01-24T10:16:49.757Z,78.30
2019-01-24T10:19:21.735Z,77.87
2019-01-24T10:21:52.848Z,77.87
2019-01-24T10:24:23.508Z,77.86
2019-01-24T10:26:55.378Z,77.62
2019-01-24T10:29:26.059Z,76.64
2019-01-24T10:31:56.484Z,76.46
2019-01-24T10:34:27.032Z,75.85
2019-01-24T10:36:57.736Z,75.89
2019-01-24T10:39:29.241Z,75.79
2019-01-24T10:42:00.080Z,75.08
2019-01-24T10:44:30.732Z,74.90
2019-01-24T10:47:01.396Z,73.84
2019-01-24T10:49:32.540Z,73.37
2019-01-24T10:52:03.624Z,72.23
2019-01-24T10:54:35.768Z,71.58
2019-01-24T10:57:06.572Z,70.61
2019-01-24T10:59:37.444Z,70.55
2019-01-24T11:02:09.282Z,70.29
2019-01-24T11:04:40.014Z,70.46
2019-01-24T11:07:10.654Z,70.46
2019-01-24T11:09:41.268Z,70.00
2019-01-24T11:12:12.016Z,68.73
2019-01-24T11:14:42.799Z,66.49
2019-01-24T11:17:14.983Z,66.91
2019-01-24T11:19:45.598Z,67.54
2019-01-24T11:22:17.110Z,68.21
2019-01-24T11:24:47.734Z,67.72
2019-01-24T11:27:18.554Z,66.97
2019-01-24T11:29:49.341Z,66.49
2019-01-24T11:32:20.296Z,66.49
2019-01-24T11:34:52.614Z,65.62
2019-01-24T11:37:23.618Z,66.03
2019-01-24T11:39:54.361Z,66.78
2019-01-24T11:42:26.000Z,67.65
2019-01-24T11:44:56.600Z,68.16
2019-01-24T11:47:27.621Z,68.03
2019-01-24T11:49:58.336Z,67.92
2019-01-24T11:52:29.927Z,67.93
2019-01-24T11:55:00.746Z,66.43
2019-01-24T11:57:31.528Z,67.07
2019-01-24T12:00:02.328Z,67.72
2019-01-24T12:02:39.566Z,67.42
2019-01-24T12:05:06.636Z,67.21
2019-01-24T12:07:37.341Z,68.07
2019-01-24T12:10:10.374Z,68.39
2019-01-24T12:12:41.866Z,69.75
2019-01-24T12:15:14.909Z,70.43
2019-01-24T12:17:47.033Z,71.26
2019-01-24T12:20:21.219Z,72.03
2019-01-24T12:22:52.003Z,71.47
2019-01-24T12:25:23.319Z,71.86
2019-01-24T12:27:54.041Z,71.42
2019-01-24T12:30:30.430Z,70.63
2019-01-24T12:33:02.191Z,69.75
2019-01-24T12:35:33.165Z,69.76
2019-01-24T12:38:04.557Z,69.54
2019-01-24T12:40:36.265Z,69.44
2019-01-24T12:43:08.507Z,69.13
2019-01-24T12:45:40.466Z,69.00
2019-01-24T12:48:11.074Z,69.31
2019-01-24T12:50:41.771Z,69.09
2019-01-24T12:53:12.472Z,69.36
2019-01-24T12:55:43.542Z,68.72
2019-01-24T12:58:14.248Z,68.89
2019-01-24T13:00:45.085Z,69.59
2019-01-24T13:03:16.001Z,69.34
2019-01-24T13:05:46.643Z,69.19
2019-01-24T13:08:37.310Z,68.88
2019-01-24T13:11:07.960Z,69.01
2019-01-24T13:13:39.935Z,69.33
2019-01-24T13:16:10.800Z,69.37
2019-01-24T13:18:44.269Z,69.69
2019-01-24T13:21:17.711Z,69.26
2019-01-24T13:24:08.643Z,69.51
2019-01-24T13:26:40.783Z,69.53
2019-01-24T13:29:11.587Z,69.12
2019-01-24T13:31:42.336Z,69.17
2019-01-24T13:34:13.010Z,69.09
2019-01-24T13:36:43.633Z,68.98
2019-01-24T13:39:15.401Z,68.87
2019-01-24T13:41:46.227Z,69.28
2019-01-24T13:44:16.882Z,69.67
2019-01-24T13:46:47.571Z,69.59
2019-01-24T13:49:18.213Z,69.82
2019-01-24T13:51:48.737Z,69.25
2019-01-24T13:54:19.552Z,69.78
2019-01-24T13:56:50.190Z,69.95
2019-01-24T13:59:20.862Z,70.25
2019-01-24T14:01:53.030Z,70.75
2019-01-24T14:04:31.621Z,70.53
2019-01-24T14:07:02.270Z,71.08
2019-01-24T14:09:32.651Z,71.35
2019-01-24T14:12:03.364Z,72.35
2019-01-24T14:14:34.074Z,72.36
2019-01-24T14:17:06.439Z,72.54
2019-01-24T14:19:37.809Z,73.04
2019-01-24T14:22:08.382Z,73.44
2019-01-24T14:24:39.151Z,73.72
2019-01-24T14:27:11.201Z,73.98
2019-01-24T14:29:41.942Z,73.94
2019-01-24T14:32:12.669Z,73.83
2019-01-24T14:34:44.946Z,74.47
2019-01-24T14:37:16.944Z,74.57
2019-01-24T14:39:47.713Z,74.86
2019-01-24T14:42:18.226Z,74.82
2019-01-24T14:44:48.830Z,75.07
2019-01-24T14:47:22.093Z,75.17
2019-01-24T14:49:52.934Z,75.73
2019-01-24T14:52:23.742Z,76.01
2019-01-24T14:54:54.993Z,76.71
2019-01-24T14:57:27.479Z,77.59
2019-01-24T14:59:58.532Z,77.59
2019-01-24T15:02:30.240Z,78.03
2019-01-24T15:05:00.799Z,78.06
2019-01-24T15:07:31.663Z,77.98
2019-01-24T15:10:02.224Z,77.98
2019-01-24T15:12:33.824Z,78.06
2019-01-24T15:15:05.572Z,78.06
2019-01-24T15:17:37.584Z,78.06
2019-01-24T15:20:10.487Z,78.12
2019-01-24T15:22:42.288Z,77.97
2019-01-24T15:25:13.422Z,77.58
2019-01-24T15:27:44.557Z,77.55
2019-01-24T15:30:17.866Z,77.55
2019-01-24T15:32:48.498Z,77.55
2019-01-24T15:35:20.089Z,77.42
2019-01-24T15:37:54.696Z,76.83
2019-01-24T15:40:32.859Z,76.87
2019-01-24T15:43:03.613Z,76.66
2019-01-24T15:45:34.632Z,77.44
2019-01-24T15:48:05.872Z,78.01
2019-01-24T15:50:38.654Z,78.19
2019-01-24T15:53:12.207Z,78.19
2019-01-24T15:55:44.220Z,78.49
2019-01-24T15:58:17.410Z,78.87
2019-01-24T16:00:48.568Z,78.69
2019-01-24T16:03:20.191Z,79.29
2019-01-24T16:05:50.998Z,79.53
2019-01-24T16:08:21.798Z,79.49
2019-01-24T16:10:53.951Z,80.26
2019-01-24T16:13:24.888Z,80.71
2019-01-24T16:15:58.620Z,81.16
2019-01-24T16:18:30.987Z,81.10
2019-01-24T16:21:01.572Z,81.25
2019-01-24T16:23:32.375Z,81.19
2019-01-24T16:26:03.176Z,81.23
2019-01-24T16:28:34.315Z,81.44
2019-01-24T16:31:05.331Z,81.34
2019-01-24T16:33:38.437Z,81.31
2019-01-24T16:36:10.680Z,81.42
2019-01-24T16:38:42.937Z,81.34
2019-01-24T16:41:14.992Z,81.62
2019-01-24T16:43:45.784Z,81.77
2019-01-24T16:46:16.434Z,81.98
2019-01-24T16:48:47.247Z,82.27
2019-01-24T16:51:19.075Z,82.04
2019-01-24T16:53:49.975Z,82.07
2019-01-24T16:56:20.534Z,81.94
2019-01-24T16:58:51.122Z,82.30
2019-01-24T17:01:23.530Z,82.48
2019-01-24T17:03:54.544Z,82.97
2019-01-24T17:06:26.544Z,83.40
2019-01-24T17:08:58.398Z,83.57
2019-01-24T17:11:29.477Z,83.66
2019-01-24T17:14:04.237Z,83.91
2019-01-24T17:16:34.936Z,83.87
2019-01-24T17:19:06.399Z,84.33
2019-01-24T17:21:37.579Z,84.43
2019-01-24T17:24:09.040Z,84.68
2019-01-24T17:26:39.943Z,84.72
2019-01-24T17:29:10.688Z,84.85
2019-01-24T17:31:43.764Z,84.70
2019-01-24T17:34:14.429Z,84.42
2019-01-24T17:36:44.959Z,84.24
2019-01-24T17:39:18.406Z,84.20
2019-01-24T17:41:49.152Z,84.13
2019-01-24T17:44:19.824Z,84.12
2019-01-24T17:46:50.636Z,84.20
2019-01-24T17:49:20.990Z,84.19
2019-01-24T17:51:51.389Z,84.19
2019-01-24T17:54:21.777Z,84.33
2019-01-24T17:56:52.178Z,84.53
2019-01-24T17:59:22.582Z,84.59
2019-01-24T18:01:52.955Z,84.46
2019-01-24T18:04:23.262Z,84.84
2019-01-24T18:06:53.699Z,84.77
2019-01-24T18:09:24.169Z,84.86
2019-01-24T18:11:55.403Z,84.97
2019-01-24T18:14:25.774Z,85.09
2019-01-24T18:16:56.564Z,85.12
2019-01-24T18:19:28.170Z,85.07
2019-01-24T18:21:58.597Z,85.06
2019-01-24T18:24:29.162Z,85.15
2019-01-24T18:27:00.526Z,85.27
2019-01-24T18:29:30.962Z,85.01
2019-01-24T18:32:01.358Z,85.16
2019-01-24T18:34:31.754Z,85.30
2019-01-24T18:37:02.081Z,85.47
2019-01-24T18:39:32.435Z,85.58
2019-01-24T18:42:03.224Z,85.55
2019-01-24T18:44:33.558Z,85.46
2019-01-24T18:47:03.959Z,85.53
2019-01-24T18:49:34.340Z,85.41
2019-01-24T18:52:04.736Z,85.47
2019-01-24T18:54:36.079Z,85.62
2019-01-24T18:57:07.382Z,85.62
2019-01-24T18:59:37.972Z,85.58
2019-01-24T19:02:07.683Z,85.63
2019-01-24T19:04:38.552Z,85.80
2019-01-24T19:07:09.643Z,85.79
2019-01-24T19:09:40.775Z,85.83
2019-01-24T19:12:11.461Z,86.00
2019-01-24T19:14:42.009Z,85.99
2019-01-24T19:17:12.679Z,86.11
2019-01-24T19:19:43.278Z,86.18
2019-01-24T19:22:13.971Z,86.26
2019-01-24T19:24:44.539Z,86.20
2019-01-24T19:27:15.219Z,86.04
2019-01-24T19:29:46.346Z,85.76
2019-01-24T19:32:16.909Z,85.55
2019-01-24T19:34:47.246Z,85.34
2019-01-24T19:37:17.641Z,85.38
2019-01-24T19:39:48.082Z,85.38
2019-01-24T19:42:18.411Z,85.10
2019-01-24T19:44:48.781Z,85.02
2019-01-24T19:47:19.427Z,85.13
2019-01-24T19:49:49.980Z,85.11
2019-01-24T19:52:20.685Z,84.92
2019-01-24T19:54:51.452Z,84.96
2019-01-24T19:57:22.219Z,84.88
2019-01-24T19:59:52.797Z,85.00
2019-01-24T20:02:23.563Z,84.86
2019-01-24T20:04:55.291Z,84.89
2019-01-24T20:07:26.923Z,84.89
2019-01-24T20:09:58.526Z,84.81
2019-01-24T20:12:29.073Z,84.70
2019-01-24T20:14:59.814Z,84.39
2019-01-24T20:17:31.721Z,84.33
2019-01-24T20:20:03.600Z,84.18
2019-01-24T20:22:34.270Z,84.18
2019-01-24T20:25:06.128Z,84.34
2019-01-24T20:27:37.248Z,84.25
2019-01-24T20:30:11.784Z,84.24
2019-01-24T20:32:42.246Z,84.22
2019-01-24T20:35:17.082Z,84.14
2019-01-24T20:37:47.889Z,84.36
2019-01-24T20:40:18.554Z,84.62
2019-01-24T20:42:49.130Z,84.63
2019-01-24T20:45:19.440Z,84.50
2019-01-24T20:47:54.059Z,84.60
2019-01-24T20:50:24.499Z,84.85
2019-01-24T20:52:54.860Z,85.04
2019-01-24T20:55:25.315Z,85.04
2019-01-24T20:57:55.737Z,85.05
2019-01-24T21:00:29.739Z,84.93
2019-01-24T21:03:00.553Z,84.89
2019-01-24T21:05:31.364Z,84.93
2019-01-24T21:08:02.065Z,85.19
2019-01-24T21:10:32.957Z,85.28
2019-01-24T21:13:03.393Z,85.52
2019-01-24T21:15:33.803Z,85.81
2019-01-24T21:18:04.327Z,85.87
2019-01-24T21:20:36.589Z,86.08
2019-01-24T21:23:08.146Z,86.00
2019-01-24T21:25:40.446Z,85.94
2019-01-24T21:28:11.195Z,85.73
2019-01-24T21:30:43.825Z,85.82
2019-01-24T21:33:14.650Z,85.66
2019-01-24T21:35:47.395Z,85.72
2019-01-24T21:38:17.983Z,85.54
2019-01-24T21:40:48.735Z,85.49
2019-01-24T21:43:21.541Z,85.33
2019-01-24T21:45:54.769Z,85.38
2019-01-24T21:48:25.707Z,85.14
2019-01-24T21:50:57.671Z,84.93
2019-01-24T21:53:29.618Z,84.56
2019-01-24T21:56:00.276Z,84.36
2019-01-24T21:58:32.391Z,84.17
2019-01-24T22:01:04.370Z,83.98
2019-01-24T22:03:36.568Z,84.05
2019-01-24T22:06:07.448Z,84.11
2019-01-24T22:08:38.031Z,84.02
2019-01-24T22:11:09.549Z,84.11
2019-01-24T22:13:42.979Z,84.12
2019-01-24T22:16:13.341Z,84.38
2019-01-24T22:18:43.758Z,84.30
2019-01-24T22:21:14.528Z,84.13
2019-01-24T22:23:45.575Z,84.24
2019-01-24T22:26:17.179Z,84.39
2019-01-24T22:28:47.946Z,84.19
2019-01-24T22:31:18.349Z,84.23
2019-01-24T22:33:48.822Z,84.08
2019-01-24T22:36:19.271Z,84.06
2019-01-24T22:38:49.776Z,83.92
2019-01-24T22:41:20.598Z,83.83
2019-01-24T22:43:51.022Z,83.42
2019-01-24T22:46:21.439Z,83.19
2019-01-24T22:48:51.961Z,83.14
2019-01-24T22:51:22.382Z,82.97
2019-01-24T22:53:52.728Z,83.15
2019-01-24T22:56:23.549Z,83.37
2019-01-24T22:58:54.284Z,83.42
2019-01-24T23:01:47.894Z,83.32
2019-01-24T23:04:21.032Z,83.32
2019-01-24T23:06:51.896Z,83.13
2019-01-24T23:09:22.757Z,83.01
2019-01-24T23:11:54.889Z,82.96
2019-01-24T23:15:18.095Z,82.88
2019-01-24T23:17:49.114Z,83.33
2019-01-24T23:20:19.963Z,83.83
2019-01-24T23:22:50.634Z,84.32
2019-01-24T23:25:21.698Z,84.97
2019-01-24T23:27:52.279Z,84.93
2019-01-24T23:30:22.633Z,85.02
2019-01-24T23:32:53.111Z,85.16
2019-01-24T23:35:23.482Z,85.41
2019-01-24T23:37:53.777Z,85.35
2019-01-24T23:40:24.699Z,85.32
2019-01-24T23:42:55.085Z,85.30
2019-01-24T23:45:25.399Z,85.40
2019-01-24T23:48:01.759Z,85.28
2019-01-24T23:50:32.128Z,85.37
2019-01-24T23:53:03.671Z,85.42
2019-01-24T23:55:34.059Z,85.34
2019-01-24T23:58:04.928Z,85.23
